Time;durP1;ratioP1;P1;durP2;ratioP2;P2;SDS_P1;SDS_P2;PMS_P1;PMS_P2;Temp;Humidity;BMP_temperature;BMP_pressure;BME280_temperature;BME280_humidity;BME280_pressure;Samples;Min_cycle;Max_cycle;Signal;HPM_P1;HPM_P2
2022/04/17 00:02:11;;;;;;;41.42;22.20;;;;;;;9.06;52.71;102719.13;5050065;28;20060;-74
2022/04/17 00:04:37;;;;;;;38.05;21.27;;;;;;;9.04;51.75;102718.66;5053661;28;20061;-74
2022/04/17 00:07:04;;;;;;;37.05;19.40;;;;;;;8.97;52.99;102716.44;5066657;28;20133;-74
2022/04/17 00:09:31;;;;;;;31.77;17.85;;;;;;;8.93;52.11;102709.97;5077946;28;20774;-74
2022/04/17 00:11:57;;;;;;;25.45;12.90;;;;;;;8.78;52.92;102707.03;5061417;28;20055;-74
2022/04/17 00:14:24;;;;;;;25.60;13.57;;;;;;;8.63;54.31;102707.63;5062241;28;20044;-75
2022/04/17 00:16:50;;;;;;;25.98;12.70;;;;;;;8.66;54.18;102715.22;5067992;28;20647;-73
2022/04/17 00:19:17;;;;;;;23.92;11.93;;;;;;;8.65;55.38;102705.34;5064512;28;20045;-74
2022/04/17 00:21:43;;;;;;;25.98;12.05;;;;;;;8.63;56.15;102710.38;5066464;28;20083;-73
2022/04/17 00:24:10;;;;;;;22.92;11.38;;;;;;;8.58;54.59;102703.13;5058678;28;20048;-74
2022/04/17 00:26:37;;;;;;;22.67;11.77;;;;;;;8.52;57.73;102700.88;5067624;28;20760;-74
2022/04/17 00:29:03;;;;;;;20.38;10.38;;;;;;;8.46;57.20;102689.25;5063204;28;20074;-74
2022/04/17 00:31:30;;;;;;;23.00;11.30;;;;;;;8.46;58.51;102697.53;5066512;28;20136;-74
2022/04/17 00:33:56;;;;;;;20.15;10.55;;;;;;;8.39;57.68;102699.19;5050260;28;20063;-74
2022/04/17 00:36:23;;;;;;;28.75;12.20;;;;;;;8.33;58.74;102695.81;5053908;28;20044;-74
2022/04/17 00:38:49;;;;;;;22.65;10.98;;;;;;;8.31;58.26;102692.59;5059849;28;20502;-73
2022/04/17 00:41:16;;;;;;;20.80;10.95;;;;;;;8.25;59.93;102690.38;5060948;28;20059;-74
2022/04/17 00:43:47;;;;;;;21.70;10.85;;;;;;;8.24;58.13;102684.06;5058834;28;20421;-75
2022/04/17 00:46:14;;;;;;;22.98;11.40;;;;;;;8.15;59.21;102686.00;5061400;28;20136;-74
2022/04/17 00:48:41;;;;;;;22.42;11.32;;;;;;;8.10;61.34;102682.66;5065972;28;20060;-75
2022/04/17 00:51:08;;;;;;;22.92;11.68;;;;;;;8.07;61.81;102689.66;5059384;28;20083;-74
2022/04/17 00:53:36;;;;;;;21.25;11.18;;;;;;;8.07;60.15;102690.44;5063903;28;20060;-76
2022/04/17 00:56:04;;;;;;;22.23;11.68;;;;;;;8.09;60.78;102692.06;5067764;28;20132;-74
2022/04/17 00:58:32;;;;;;;25.17;11.90;;;;;;;8.06;61.30;102688.00;5063959;28;20053;-74
2022/04/17 01:01:00;;;;;;;22.95;12.95;;;;;;;8.06;60.38;102681.69;5061738;28;20045;-74
2022/04/17 01:03:28;;;;;;;29.45;15.90;;;;;;;7.91;60.32;102677.56;5052785;28;20044;-75
2022/04/17 01:05:55;;;;;;;38.78;21.63;;;;;;;7.89;59.32;102680.66;5066032;28;20057;-73
2022/04/17 01:08:22;;;;;;;37.90;21.35;;;;;;;7.84;59.97;102691.06;5069921;28;20131;-75
2022/04/17 01:10:49;;;;;;;58.00;30.15;;;;;;;7.79;61.39;102680.19;5053866;28;20159;-73
2022/04/17 01:13:17;;;;;;;41.45;23.75;;;;;;;7.73;61.75;102679.56;5057849;28;20048;-74
2022/04/17 01:15:44;;;;;;;37.30;20.48;;;;;;;7.69;61.95;102675.06;5057485;28;20083;-73
2022/04/17 01:18:11;;;;;;;36.15;20.95;;;;;;;7.68;62.20;102678.97;5057077;28;20072;-75
2022/04/17 01:20:40;;;;;;;30.13;17.13;;;;;;;7.62;61.52;102674.75;5063106;28;20060;-73
2022/04/17 01:28:39;;;;;;;27.15;14.10;;;;;;;7.43;63.03;102675.16;5060779;28;20085;-74
2022/04/17 01:31:05;;;;;;;31.58;14.88;;;;;;;7.37;63.47;102668.22;5065518;28;20527;-74
2022/04/17 01:33:37;;;;;;;28.63;14.82;;;;;;;7.39;64.35;102671.44;5061334;28;20141;-74
2022/04/17 01:36:03;;;;;;;27.85;14.40;;;;;;;7.36;62.56;102672.09;5058274;28;20048;-74
2022/04/17 01:38:30;;;;;;;26.25;14.25;;;;;;;7.33;64.48;102670.00;5066069;28;20060;-74
2022/04/17 01:40:56;;;;;;;25.30;12.88;;;;;;;7.25;64.27;102659.00;5065093;28;20060;-74
2022/04/17 01:43:23;;;;;;;21.33;11.73;;;;;;;7.21;63.53;102652.53;5054201;28;20558;-73
2022/04/17 01:45:50;;;;;;;20.55;11.65;;;;;;;7.19;64.02;102652.88;5069522;28;20117;-74
2022/04/17 01:48:16;;;;;;;21.98;12.45;;;;;;;7.15;64.59;102653.84;5068178;28;20477;-74
2022/04/17 01:50:43;;;;;;;21.73;11.77;;;;;;;7.04;65.79;102649.84;5062343;28;20501;-75
2022/04/17 01:53:09;;;;;;;25.90;11.77;;;;;;;7.01;65.78;102654.06;5051092;28;20057;-73
2022/04/17 01:55:36;;;;;;;22.20;11.77;;;;;;;7.01;65.97;102661.50;5059606;28;20393;-74
2022/04/17 01:58:02;;;;;;;23.40;12.75;;;;;;;6.96;68.69;102659.72;5071455;28;20136;-73
2022/04/17 02:00:29;;;;;;;21.60;12.00;;;;;;;6.96;69.53;102661.69;5067441;28;20052;-74
2022/04/17 02:02:55;;;;;;;24.25;11.93;;;;;;;6.93;68.00;102662.31;5070370;28;20071;-75
2022/04/17 02:05:22;;;;;;;20.80;11.43;;;;;;;6.91;67.53;102667.34;5062059;28;20626;-74
2022/04/17 02:07:48;;;;;;;22.20;11.73;;;;;;;6.86;66.30;102662.84;5071394;28;20522;-74
2022/04/17 02:10:19;;;;;;;21.92;12.35;;;;;;;6.85;67.50;102652.16;5069484;28;20052;-76
2022/04/17 02:12:47;;;;;;;22.30;12.63;;;;;;;6.84;68.21;102653.25;5070770;28;20056;-74
2022/04/17 02:15:14;;;;;;;27.00;12.55;;;;;;;6.88;66.53;102656.97;5073249;28;20072;-73
2022/04/17 02:17:41;;;;;;;24.25;13.52;;;;;;;6.76;67.85;102646.66;5072895;28;20547;-74
2022/04/17 02:20:11;;;;;;;25.83;14.02;;;;;;;6.75;66.42;102647.75;5067168;28;20045;-74
2022/04/17 02:22:37;;;;;;;29.70;13.52;;;;;;;6.71;67.90;102654.25;5067185;28;20140;-74
2022/04/17 02:25:04;;;;;;;25.98;13.60;;;;;;;6.67;68.08;102637.59;5070995;28;20139;-74
2022/04/17 02:27:31;;;;;;;26.67;13.10;;;;;;;6.63;67.87;102641.31;5070676;28;20050;-74
2022/04/17 02:29:58;;;;;;;24.70;13.35;;;;;;;6.57;70.44;102643.41;5065930;28;20124;-74
2022/04/17 02:32:24;;;;;;;25.88;12.65;;;;;;;6.53;70.22;102650.69;5068146;28;20059;-74
2022/04/17 02:34:51;;;;;;;25.27;14.20;;;;;;;6.51;69.51;102646.66;5062673;28;20539;-74
2022/04/17 02:37:17;;;;;;;27.35;12.82;;;;;;;6.50;69.25;102659.59;5067756;28;20072;-75
2022/04/17 02:39:44;;;;;;;26.38;13.82;;;;;;;6.48;70.29;102650.06;5068443;28;20056;-73
2022/04/17 02:42:10;;;;;;;25.08;12.98;;;;;;;6.46;70.76;102649.56;5068585;28;20055;-75
2022/04/17 02:44:37;;;;;;;24.33;13.57;;;;;;;6.48;68.98;102652.81;5070410;28;20174;-73
2022/04/17 02:49:48;;;;;;;24.52;12.43;;;;;;;6.44;69.96;102655.38;5068205;28;20059;-74
2022/04/17 02:52:15;;;;;;;25.10;11.68;;;;;;;6.36;71.15;102650.69;5070120;28;20136;-74
2022/04/17 02:54:41;;;;;;;23.25;10.88;;;;;;;6.32;72.77;102644.22;5060660;28;20148;-74
2022/04/17 02:57:08;;;;;;;23.67;11.30;;;;;;;6.24;71.66;102633.22;5068196;28;20074;-74
2022/04/17 02:59:35;;;;;;;22.40;11.23;;;;;;;6.25;71.85;102643.06;5069949;28;20135;-76
2022/04/17 03:07:34;;;;;;;21.05;10.27;;;;;;;6.18;71.61;102634.50;5063761;28;20044;-74
2022/04/17 03:10:02;;;;;;;25.27;10.52;;;;;;;6.12;72.96;102630.28;5060819;28;20055;-75
2022/04/17 03:12:28;;;;;;;21.73;9.98;;;;;;;6.12;72.88;102630.28;5070186;28;20132;-75
2022/04/17 03:14:55;;;;;;;25.00;11.63;;;;;;;6.09;72.77;102637.25;5071367;28;20465;-74
2022/04/17 03:17:21;;;;;;;21.75;11.10;;;;;;;6.03;71.52;102637.69;5075871;28;20420;-75
2022/04/17 03:19:48;;;;;;;23.45;12.05;;;;;;;5.97;73.31;102637.03;5063073;28;20131;-73
2022/04/17 03:22:14;;;;;;;22.48;12.02;;;;;;;5.98;72.99;102646.94;5070029;28;20055;-73
2022/04/17 03:24:41;;;;;;;26.58;11.20;;;;;;;5.92;73.31;102637.19;5070497;28;20410;-74
2022/04/17 03:27:08;;;;;;;23.10;11.20;;;;;;;5.90;72.61;102635.91;5070553;28;20059;-73
2022/04/17 03:29:34;;;;;;;23.75;11.77;;;;;;;5.86;74.77;102643.97;5070636;28;20044;-73
2022/04/17 03:32:01;;;;;;;21.55;10.52;;;;;;;5.78;74.22;102636.50;5064861;28;20087;-74
2022/04/17 03:34:28;;;;;;;24.33;11.50;;;;;;;5.81;73.30;102643.28;5070551;28;20550;-74
2022/04/17 03:36:58;;;;;;;24.23;12.23;;;;;;;5.80;73.91;102645.22;5070764;28;20045;-73
2022/04/17 03:39:25;;;;;;;21.42;11.30;;;;;;;5.73;72.20;102638.56;5060306;28;20064;-74
2022/04/17 03:41:53;;;;;;;23.58;13.20;;;;;;;5.68;73.21;102630.47;5064989;28;20136;-74
2022/04/17 03:44:20;;;;;;;26.48;14.73;;;;;;;5.64;72.63;102635.81;5069858;28;20044;-74
2022/04/17 03:46:47;;;;;;;27.90;14.52;;;;;;;5.63;73.42;102630.63;5069026;28;20079;-73
2022/04/17 03:49:14;;;;;;;28.65;13.32;;;;;;;5.59;74.23;102626.88;5069776;28;20051;-73
2022/04/17 03:51:41;;;;;;;29.42;13.18;;;;;;;5.58;74.72;102625.25;5056040;28;20076;-76
2022/04/17 03:54:07;;;;;;;24.63;11.02;;;;;;;5.55;73.86;102615.72;5069846;28;20048;-75
2022/04/17 03:56:34;;;;;;;23.52;11.82;;;;;;;5.57;73.45;102623.66;5068804;28;20055;-75
2022/04/17 03:59:03;;;;;;;19.90;10.93;;;;;;;5.54;73.70;102613.28;5068894;28;20048;-74
2022/04/17 04:01:29;;;;;;;19.95;10.82;;;;;;;5.50;75.24;102612.31;5065528;28;20045;-74
2022/04/17 04:03:56;;;;;;;22.80;11.80;;;;;;;5.43;74.95;102605.34;5068859;28;20566;-75
2022/04/17 04:06:23;;;;;;;22.27;10.77;;;;;;;5.44;76.31;102600.69;5067959;28;20048;-73
2022/04/17 04:08:49;;;;;;;21.20;9.85;;;;;;;5.39;76.34;102590.63;5091439;28;20095;-73
2022/04/17 04:11:20;;;;;;;20.70;10.38;;;;;;;5.39;77.21;102601.63;5050819;28;20065;-75
2022/04/17 04:13:46;;;;;;;20.40;11.02;;;;;;;5.32;77.13;102603.19;5067415;28;20052;-74
2022/04/17 04:16:14;;;;;;;22.17;11.50;;;;;;;5.30;76.82;102603.50;5071332;28;20135;-74
2022/04/17 04:18:41;;;;;;;24.15;11.85;;;;;;;5.31;76.64;102604.34;5064373;28;20104;-76
2022/04/17 04:21:07;;;;;;;23.98;12.48;;;;;;;5.23;77.67;102597.66;5063305;28;20131;-74
2022/04/17 04:23:35;;;;;;;24.77;12.55;;;;;;;5.16;78.17;102599.25;5065128;28;20048;-74
2022/04/17 04:26:03;;;;;;;23.75;12.60;;;;;;;5.13;78.18;102597.94;5067303;28;20080;-73
2022/04/17 04:28:34;;;;;;;23.80;11.25;;;;;;;5.12;77.31;102604.56;5068424;28;20121;-74
2022/04/17 04:31:01;;;;;;;22.95;12.27;;;;;;;5.11;77.40;102600.22;5054057;28;20056;-74
2022/04/17 04:33:29;;;;;;;23.45;11.90;;;;;;;5.15;78.02;102600.38;5067533;28;20064;-73
2022/04/17 04:35:56;;;;;;;24.15;11.93;;;;;;;5.18;78.71;102606.06;5067322;28;20056;-75
2022/04/17 04:38:22;;;;;;;22.42;11.68;;;;;;;5.13;77.24;102597.94;5068135;28;20044;-75
2022/04/17 04:40:49;;;;;;;24.42;12.45;;;;;;;5.10;79.24;102597.78;5059961;28;20133;-73
2022/04/17 04:43:16;;;;;;;22.13;11.82;;;;;;;5.12;78.26;102601.00;5068367;28;20048;-74
2022/04/17 04:51:13;;;;;;;26.30;12.93;;;;;;;5.06;79.85;102589.34;5068606;28;20456;-74
2022/04/17 04:53:40;;;;;;;24.05;12.35;;;;;;;5.05;78.49;102595.97;5066935;28;20520;-74
2022/04/17 04:56:07;;;;;;;22.85;12.32;;;;;;;5.02;79.49;102596.59;5066723;28;20148;-74
2022/04/17 04:58:34;;;;;;;27.13;14.07;;;;;;;5.07;79.13;102584.69;5062627;28;20529;-73
2022/04/17 05:01:02;;;;;;;28.58;11.82;;;;;;;5.08;80.21;102594.53;5046313;28;20063;-75
2022/04/17 05:03:28;;;;;;;22.50;11.77;;;;;;;5.08;80.15;102595.34;5048429;28;20080;-74
2022/04/17 05:05:55;;;;;;;24.52;11.48;;;;;;;5.12;79.81;102596.34;5054252;28;20067;-73
2022/04/17 05:08:21;;;;;;;23.83;11.68;;;;;;;5.10;78.23;102593.09;5065198;28;20044;-76
2022/04/17 05:10:55;;;;;;;21.92;12.10;;;;;;;5.08;79.18;102592.59;5057023;28;20492;-74
2022/04/17 05:13:21;;;;;;;21.42;11.25;;;;;;;5.12;78.82;102593.59;5068352;28;20135;-74
2022/04/17 05:15:48;;;;;;;22.13;12.27;;;;;;;5.11;79.24;102600.22;5066600;28;20060;-76
2022/04/17 05:18:15;;;;;;;24.30;12.02;;;;;;;5.12;78.65;102595.50;5058401;28;20041;-73
2022/04/17 05:20:42;;;;;;;22.50;11.50;;;;;;;5.13;79.35;102603.44;5091187;28;20052;-73
2022/04/17 05:23:22;;;;;;;24.67;12.25;;;;;;;5.15;80.15;102601.19;5061312;28;20473;-76
2022/04/17 05:25:59;;;;;;;24.55;12.98;;;;;;;5.22;80.16;102604.28;5061230;28;20093;-74
2022/04/17 05:28:28;;;;;;;29.98;15.45;;;;;;;5.30;80.74;102605.47;5068315;28;20766;-73
2022/04/17 05:30:55;;;;;;;27.52;14.02;;;;;;;5.37;81.14;102609.34;5068075;28;20094;-74
2022/04/17 05:33:22;;;;;;;26.92;14.73;;;;;;;5.47;79.97;102616.53;5066444;28;20048;-75
2022/04/17 05:35:50;;;;;;;23.77;13.63;;;;;;;5.55;79.44;102614.91;5068580;28;20643;-73
2022/04/17 05:38:18;;;;;;;25.13;13.27;;;;;;;5.62;79.84;102618.81;5055461;28;20154;-75
2022/04/17 05:40:48;;;;;;;24.80;13.68;;;;;;;5.70;78.80;102615.28;5068191;28;20056;-75
2022/04/17 05:43:16;;;;;;;21.70;12.40;;;;;;;5.75;79.59;102608.84;5058210;28;20045;-74
2022/04/17 05:45:42;;;;;;;27.42;12.70;;;;;;;5.84;79.88;102612.47;5068114;28;20052;-74
2022/04/17 05:48:09;;;;;;;24.13;13.20;;;;;;;5.89;79.32;102606.78;5058668;28;20061;-75
2022/04/17 05:50:39;;;;;;;25.88;12.60;;;;;;;5.99;78.29;102603.75;5066735;28;20135;-74
2022/04/17 05:53:05;;;;;;;22.98;11.68;;;;;;;6.09;78.05;102611.69;5066450;28;20552;-74
2022/04/17 05:55:32;;;;;;;25.23;13.70;;;;;;;6.16;77.25;102612.00;5066544;28;20055;-74
2022/04/17 05:57:58;;;;;;;27.65;15.63;;;;;;;6.26;77.63;102614.44;5066871;28;20051;-75
2022/04/17 06:00:25;;;;;;;27.75;15.23;;;;;;;6.30;76.54;102607.97;5067909;28;20749;-75
2022/04/17 06:02:52;;;;;;;26.95;15.55;;;;;;;6.37;76.07;102613.00;5065617;28;20167;-76
2022/04/17 06:05:19;;;;;;;24.33;15.10;;;;;;;6.47;75.99;102609.91;5063237;28;20776;-74
2022/04/17 06:07:46;;;;;;;24.77;13.98;;;;;;;6.56;75.32;102607.97;5061184;28;20044;-76
2022/04/17 06:10:14;;;;;;;28.35;14.02;;;;;;;6.65;74.85;102592.28;5057088;28;20090;-76
2022/04/17 06:12:41;;;;;;;24.50;13.13;;;;;;;6.79;74.50;102603.91;5066306;28;20143;-75
2022/04/17 06:15:09;;;;;;;25.70;13.40;;;;;;;6.88;74.13;102596.44;5066527;28;20059;-76
2022/04/17 06:17:39;;;;;;;27.65;13.57;;;;;;;6.99;73.00;102594.97;5065912;28;20449;-75
2022/04/17 06:20:08;;;;;;;24.30;12.90;;;;;;;7.11;72.47;102595.91;5061666;28;20044;-76
2022/04/17 06:22:35;;;;;;;23.48;12.75;;;;;;;7.23;72.40;102595.22;5069644;28;20127;-76
2022/04/17 06:25:07;;;;;;;23.52;12.65;;;;;;;7.34;72.41;102594.53;5058782;28;20045;-75
2022/04/17 06:27:50;;;;;;;23.85;11.27;;;;;;;7.48;72.41;102599.78;5064611;28;20048;-77
2022/04/17 06:30:18;;;;;;;26.08;10.77;;;;;;;7.60;71.62;102594.41;5058794;28;20052;-75
2022/04/17 06:32:46;;;;;;;23.83;11.18;;;;;;;7.68;70.67;102590.78;5068846;28;20135;-75
2022/04/17 06:35:14;;;;;;;20.42;11.38;;;;;;;7.82;70.21;102589.41;5069501;28;20053;-76
2022/04/17 06:37:52;;;;;;;23.25;11.35;;;;;;;7.97;69.32;102596.28;5069117;28;20048;-76
2022/04/17 06:40:23;;;;;;;20.13;10.02;;;;;;;8.09;68.87;102592.81;5064553;28;20144;-77
2022/04/17 06:42:52;;;;;;;23.40;11.55;;;;;;;8.19;68.05;102582.16;5061347;28;20049;-74
2022/04/17 06:45:19;;;;;;;20.45;9.93;;;;;;;8.35;67.06;102585.16;5069242;28;20141;-76
2022/04/17 06:47:46;;;;;;;24.05;12.00;;;;;;;8.48;66.01;102575.78;5069501;28;20229;-74
2022/04/17 06:50:14;;;;;;;20.88;9.68;;;;;;;8.62;64.89;102579.88;5071640;28;20056;-76
2022/04/17 06:52:41;;;;;;;19.30;8.93;;;;;;;8.72;64.03;102571.19;5070697;28;20064;-78
2022/04/17 06:55:11;;;;;;;24.20;9.43;;;;;;;8.84;63.46;102571.19;5058139;28;20135;-75
2022/04/17 06:57:45;;;;;;;20.30;8.82;;;;;;;9.00;62.95;102569.41;5071207;28;20048;-76
2022/04/17 07:00:12;;;;;;;18.38;9.10;;;;;;;9.14;61.58;102572.66;5068160;28;20085;-75
2022/04/17 07:02:42;;;;;;;18.55;9.32;;;;;;;9.25;60.26;102568.28;5063940;28;20485;-75
2022/04/17 07:05:10;;;;;;;17.60;8.60;;;;;;;9.36;59.63;102558.41;5065762;28;20092;-74
2022/04/17 07:07:37;;;;;;;18.35;8.80;;;;;;;9.46;58.59;102557.97;5071059;28;20053;-76
2022/04/17 07:10:04;;;;;;;16.85;7.85;;;;;;;9.59;57.75;102562.31;5068913;28;20067;-77
2022/04/17 07:12:30;;;;;;;15.52;7.18;;;;;;;9.72;57.25;102561.16;5062969;28;20135;-75
2022/04/17 07:15:00;;;;;;;17.15;7.53;;;;;;;9.87;57.09;102557.69;5068774;28;20072;-70
2022/04/17 07:17:34;;;;;;;17.40;6.70;;;;;;;10.02;57.28;102558.91;5071295;28;21010;-76
2022/04/17 07:20:02;;;;;;;16.25;8.20;;;;;;;10.13;56.29;102555.34;5061750;28;20041;-76
2022/04/17 07:22:29;;;;;;;18.23;8.00;;;;;;;10.23;55.97;102543.78;5058968;28;20578;-76
2022/04/17 07:24:57;;;;;;;19.77;7.97;;;;;;;10.30;55.29;102543.97;5076655;28;20056;-74
2022/04/17 07:27:25;;;;;;;18.40;8.02;;;;;;;10.39;54.41;102536.34;5073157;28;20253;-75
2022/04/17 07:29:52;;;;;;;15.40;7.55;;;;;;;10.48;53.65;102525.13;5060061;28;20112;-76
2022/04/17 07:32:20;;;;;;;14.35;6.43;;;;;;;10.65;53.92;102532.28;5050695;28;20429;-75
2022/04/17 07:34:47;;;;;;;15.77;7.18;;;;;;;10.75;53.12;102529.81;5063317;28;20523;-76
2022/04/17 07:37:24;;;;;;;16.15;7.78;;;;;;;10.83;52.97;102537.16;5069394;28;20136;-75
2022/04/17 07:39:50;;;;;;;14.85;6.63;;;;;;;10.94;53.57;102541.03;5072542;28;20144;-73
2022/04/17 07:42:19;;;;;;;12.70;5.30;;;;;;;11.12;55.51;102541.47;5058741;28;20500;-72
2022/04/17 07:44:45;;;;;;;14.57;5.82;;;;;;;11.28;54.68;102556.13;5069929;28;20048;-69
2022/04/17 07:47:12;;;;;;;14.40;6.10;;;;;;;11.38;53.18;102556.41;5061631;28;20055;-71
2022/04/17 07:49:38;;;;;;;12.27;5.55;;;;;;;11.48;52.60;102544.75;5068159;28;20501;-78
2022/04/17 07:52:05;;;;;;;17.85;6.45;;;;;;;11.60;51.36;102541.88;5058578;28;20114;-76
2022/04/17 07:54:32;;;;;;;13.30;6.32;;;;;;;11.69;50.74;102538.94;5070605;28;20048;-77
2022/04/17 07:56:58;;;;;;;11.50;5.68;;;;;;;11.75;50.33;102543.84;5070251;28;20054;-76
2022/04/17 07:59:25;;;;;;;13.05;6.05;;;;;;;11.88;50.58;102553.66;5069996;28;20061;-75
2022/04/17 08:02:01;;;;;;;13.40;6.15;;;;;;;11.98;50.24;102542.00;5049984;28;20152;-75
2022/04/17 08:04:28;;;;;;;11.55;5.60;;;;;;;12.10;49.47;102543.84;5050605;28;20057;-75
2022/04/17 08:06:54;;;;;;;14.00;6.07;;;;;;;12.23;49.42;102542.53;5062801;28;20542;-76
2022/04/17 08:09:21;;;;;;;13.77;6.18;;;;;;;12.33;49.20;102528.88;5068007;28;20052;-77
2022/04/17 08:11:51;;;;;;;14.15;5.78;;;;;;;12.41;48.92;102527.84;5057386;28;20421;-76
2022/04/17 08:14:18;;;;;;;13.98;5.68;;;;;;;12.51;48.70;102529.22;5069176;28;20058;-76
2022/04/17 08:16:45;;;;;;;13.55;5.68;;;;;;;12.65;47.87;102526.72;5070007;28;20052;-75
2022/04/17 08:19:11;;;;;;;14.00;6.63;;;;;;;12.74;47.44;102525.34;5063178;28;20040;-77
2022/04/17 08:21:40;;;;;;;12.80;5.75;;;;;;;12.78;47.01;102511.50;5069046;28;20049;-77
2022/04/17 08:24:06;;;;;;;15.18;5.85;;;;;;;12.98;47.31;102515.81;5065641;28;20467;-75
2022/04/17 08:26:33;;;;;;;15.95;5.70;;;;;;;13.07;46.88;102519.97;5063892;28;20539;-76
2022/04/17 08:28:59;;;;;;;13.40;5.40;;;;;;;13.21;47.10;102516.66;5066810;28;20052;-78
2022/04/17 08:31:26;;;;;;;8.90;3.80;;;;;;;13.30;45.81;102520.00;5066215;28;20083;-76
2022/04/17 08:33:53;;;;;;;10.23;4.38;;;;;;;13.41;46.33;102512.63;5054917;28;20064;-76
2022/04/17 08:36:19;;;;;;;11.30;4.45;;;;;;;13.50;45.70;102515.91;5072137;28;20058;-75
2022/04/17 08:38:46;;;;;;;10.32;4.18;;;;;;;13.60;45.54;102518.06;5067905;28;20551;-77
2022/04/17 08:41:13;;;;;;;11.60;5.03;;;;;;;13.73;44.34;102519.44;5058802;28;20080;-78
2022/04/17 08:43:43;;;;;;;10.32;4.50;;;;;;;13.87;44.51;102519.66;5068990;28;20828;-77
2022/04/17 08:46:10;;;;;;;9.30;4.32;;;;;;;14.00;44.19;102512.69;5068990;28;20052;-77
2022/04/17 08:48:37;;;;;;;7.50;3.42;;;;;;;14.07;44.35;102504.41;5063438;28;20110;-76
2022/04/17 08:51:05;;;;;;;12.63;4.63;;;;;;;14.21;43.99;102510.16;5081213;28;20140;-79
2022/04/17 08:53:36;;;;;;;12.32;4.88;;;;;;;14.32;43.95;102496.41;5068125;28;20551;-78
2022/04/17 08:56:03;;;;;;;11.90;4.30;;;;;;;14.40;43.99;102500.88;5070604;28;20056;-74
2022/04/17 08:58:30;;;;;;;17.40;6.35;;;;;;;14.45;44.08;102495.75;5068632;28;20070;-79
2022/04/17 09:00:57;;;;;;;11.30;4.72;;;;;;;14.54;43.59;102490.69;5069058;28;20660;-76
2022/04/17 09:03:24;;;;;;;9.07;4.57;;;;;;;14.65;43.10;102490.81;5068270;28;20049;-76
2022/04/17 09:05:50;;;;;;;13.70;4.38;;;;;;;14.74;43.48;102482.94;5069732;28;20044;-76
2022/04/17 09:08:21;;;;;;;10.77;4.90;;;;;;;14.78;42.03;102479.00;5068350;28;20156;-75
2022/04/17 09:10:58;;;;;;;11.07;4.72;;;;;;;14.86;42.07;102479.88;5064020;28;20139;-76
2022/04/17 09:13:32;;;;;;;11.90;4.32;;;;;;;15.00;41.71;102472.44;5063223;28;20084;-72
2022/04/17 09:16:01;;;;;;;8.68;4.32;;;;;;;15.16;41.50;102474.97;5059590;28;20135;-72
2022/04/17 09:18:30;;;;;;;9.57;4.60;;;;;;;15.27;41.82;102473.84;5063907;28;20053;-72
2022/04/17 09:20:57;;;;;;;11.43;4.57;;;;;;;15.36;41.64;102471.53;5065246;28;20127;-70
2022/04/17 09:23:38;;;;;;;14.02;5.35;;;;;;;15.46;40.03;102468.03;5061029;28;20132;-77
2022/04/17 09:26:06;;;;;;;10.52;4.35;;;;;;;15.53;40.69;102464.50;5065405;28;20048;-74
2022/04/17 09:28:35;;;;;;;9.30;3.97;;;;;;;15.69;40.24;102475.34;5066961;28;20459;-76
2022/04/17 09:31:12;;;;;;;8.30;4.18;;;;;;;15.76;39.58;102462.22;5058625;28;20080;-74
2022/04/17 09:33:40;;;;;;;7.75;2.95;;;;;;;15.91;39.19;102460.31;5066292;28;20084;-71
2022/04/17 09:36:08;;;;;;;8.95;3.40;;;;;;;16.03;38.77;102460.75;5056155;28;20052;-72
2022/04/17 09:38:40;;;;;;;7.32;2.95;;;;;;;16.15;39.05;102454.81;5055254;28;20128;-71
2022/04/17 09:41:13;;;;;;;9.13;3.65;;;;;;;16.13;38.78;102451.63;5062438;28;20051;-70
2022/04/17 09:43:42;;;;;;;10.57;4.70;;;;;;;16.22;38.69;102443.66;5053753;28;20056;-70
2022/04/17 09:46:09;;;;;;;8.15;4.18;;;;;;;16.33;38.81;102440.91;5060912;28;20125;-72
2022/04/17 09:48:38;;;;;;;8.93;3.80;;;;;;;16.47;38.75;102443.78;5054333;28;20052;-72
2022/04/17 09:51:22;;;;;;;10.23;3.92;;;;;;;16.64;38.10;102429.81;5060165;28;20049;-71
2022/04/17 09:53:55;;;;;;;11.73;4.30;;;;;;;16.78;38.04;102434.63;5057910;28;20057;-74
2022/04/17 09:56:40;;;;;;;11.10;4.80;;;;;;;16.80;37.23;102415.44;5065428;28;20102;-74
2022/04/17 09:59:19;;;;;;;10.52;4.50;;;;;;;16.89;37.41;102419.47;5056567;28;20055;-74
2022/04/17 10:01:47;;;;;;;10.48;5.32;;;;;;;16.86;36.81;102419.44;5065889;28;20567;-74
2022/04/17 10:04:16;;;;;;;16.30;6.25;;;;;;;16.90;36.57;102409.06;5065758;28;20056;-72
2022/04/17 10:06:44;;;;;;;10.30;4.35;;;;;;;16.85;36.54;102403.88;5068590;28;20056;-71
2022/04/17 10:09:11;;;;;;;10.27;4.75;;;;;;;17.05;37.72;102405.06;5071257;28;20102;-73
2022/04/17 10:11:39;;;;;;;8.68;4.05;;;;;;;17.24;37.30;102396.22;5070902;28;20060;-71
2022/04/17 10:14:07;;;;;;;9.70;4.60;;;;;;;17.37;36.98;102394.59;5068552;28;20072;-71
2022/04/17 10:16:35;;;;;;;10.10;4.78;;;;;;;17.42;36.97;102380.25;5065110;28;20052;-71
2022/04/17 10:19:06;;;;;;;10.93;4.30;;;;;;;17.45;35.85;102385.03;5061478;28;20740;-71
2022/04/17 10:21:35;;;;;;;5.90;2.85;;;;;;;17.59;36.22;102385.00;5068111;28;20135;-71
2022/04/17 10:24:04;;;;;;;10.60;4.30;;;;;;;17.78;36.08;102379.72;5065776;28;20056;-71
2022/04/17 10:26:38;;;;;;;7.88;3.83;;;;;;;17.83;35.70;102367.28;5073805;28;20048;-71
2022/04/17 10:29:10;;;;;;;11.20;4.22;;;;;;;17.92;34.56;102370.41;5071602;28;20135;-69
2022/04/17 10:31:58;;;;;;;11.07;4.15;;;;;;;17.94;34.38;102363.22;5067513;28;20127;-73
2022/04/17 10:34:28;;;;;;;11.98;4.35;;;;;;;18.16;34.36;102358.31;5072982;28;20044;-74
2022/04/17 10:37:03;;;;;;;12.10;4.03;;;;;;;18.26;34.41;102349.00;5070079;28;20127;-71
2022/04/17 10:39:35;;;;;;;13.73;5.22;;;;;;;18.34;33.91;102346.97;5067140;28;20049;-71
2022/04/17 10:42:09;;;;;;;10.88;4.72;;;;;;;18.48;33.79;102330.06;5060792;28;20137;-71
2022/04/17 10:44:41;;;;;;;9.73;4.15;;;;;;;18.68;33.99;102326.28;5063266;28;20429;-70
2022/04/17 10:47:27;;;;;;;8.38;4.13;;;;;;;19.24;32.87;102328.50;5069904;28;20140;-73
2022/04/17 10:50:00;;;;;;;9.38;4.05;;;;;;;19.52;32.13;102330.22;5067539;28;20065;-70
2022/04/17 10:52:29;;;;;;;12.30;4.20;;;;;;;19.37;31.74;102320.41;5059955;28;20048;-70
2022/04/17 10:55:06;;;;;;;8.82;4.07;;;;;;;19.43;32.59;102319.50;5068365;28;20182;-72
2022/04/17 10:57:42;;;;;;;9.88;4.05;;;;;;;19.63;31.65;102322.44;5069664;28;20058;-74
2022/04/17 11:00:28;;;;;;;8.23;3.28;;;;;;;19.64;29.71;102321.25;5060039;28;20132;-74
2022/04/17 11:03:21;;;;;;;7.25;3.25;;;;;;;19.58;28.47;102314.50;5054342;28;20053;-75
2022/04/17 11:08:47;;;;;;;7.00;3.40;;;;;;;19.62;29.54;102307.63;5067992;28;20562;-74
2022/04/17 11:11:14;;;;;;;10.00;4.22;;;;;;;19.69;29.15;102309.53;5066757;28;20049;-76
2022/04/17 11:14:13;;;;;;;9.40;3.20;;;;;;;19.83;28.83;102295.28;5070866;28;20693;-75
2022/04/17 11:16:51;;;;;;;9.27;3.78;;;;;;;19.97;28.97;102293.09;5082427;28;20140;-74
2022/04/17 11:19:20;;;;;;;7.28;3.45;;;;;;;20.09;29.24;102300.13;5060121;28;20102;-75
2022/04/17 11:21:50;;;;;;;5.35;2.90;;;;;;;20.32;29.43;102286.16;5066622;28;20160;-72
2022/04/17 11:24:17;;;;;;;8.50;3.80;;;;;;;20.40;29.00;102270.75;5074200;28;20551;-72
2022/04/17 11:26:53;;;;;;;5.95;3.00;;;;;;;20.62;28.02;102273.97;5059681;28;20049;-75
2022/04/17 11:29:48;;;;;;;8.75;3.63;;;;;;;21.38;26.67;102268.88;5068661;28;20135;-73
2022/04/17 11:32:17;;;;;;;5.93;2.97;;;;;;;21.01;28.00;102276.88;5074781;28;20266;-70
2022/04/17 11:34:52;;;;;;;6.40;3.25;;;;;;;21.07;27.47;102266.72;5072479;28;20043;-74
2022/04/17 11:37:19;;;;;;;9.13;3.20;;;;;;;21.12;28.04;102261.38;5069932;28;20071;-70
2022/04/17 11:39:46;;;;;;;8.43;3.05;;;;;;;21.07;27.86;102255.47;5077886;28;20051;-75
2022/04/17 11:42:13;;;;;;;7.18;3.10;;;;;;;21.18;27.96;102251.19;5061965;28;20116;-76
2022/04/17 11:44:40;;;;;;;10.90;3.75;;;;;;;21.14;27.64;102242.03;5064056;28;20137;-76
2022/04/17 11:47:10;;;;;;;6.72;3.03;;;;;;;21.22;27.52;102243.47;5071241;28;20077;-75
2022/04/17 11:49:45;;;;;;;6.22;3.17;;;;;;;21.23;27.35;102238.66;5078230;28;20048;-68